Time;durP1;ratioP1;P1;durP2;ratioP2;P2;SDS_P1;SDS_P2;PMS_P1;PMS_P2;Temp;Humidity;BMP_temperature;BMP_pressure;BME280_temperature;BME280_humidity;BME280_pressure;Samples;Min_cycle;Max_cycle;Signal;HPM_P1;HPM_P2
2021/05/13 00:01:10;;;;;;;3.38;2.03;;;11.10;99.90;;;;;;5075235;28;20553;-72
2021/05/13 00:03:36;;;;;;;10.77;2.30;;;11.10;99.90;;;;;;5073214;28;20092;-69
2021/05/13 00:06:03;;;;;;;7.10;2.72;;;11.00;99.90;;;;;;5063961;28;20095;-70
2021/05/13 00:08:29;;;;;;;4.03;2.20;;;11.00;99.90;;;;;;5064472;28;20037;-69
2021/05/13 00:11:03;;;;;;;6.88;2.72;;;11.00;99.90;;;;;;5063906;28;20047;-71
2021/05/13 00:13:33;;;;;;;7.18;3.40;;;10.90;99.90;;;;;;5064163;28;20025;-68
2021/05/13 00:15:59;;;;;;;9.70;3.35;;;10.90;99.90;;;;;;5064088;28;20033;-69
2021/05/13 00:18:25;;;;;;;5.68;3.08;;;10.80;99.90;;;;;;5064231;28;20412;-70
2021/05/13 00:20:52;;;;;;;9.38;3.55;;;10.80;99.90;;;;;;5063803;28;20033;-70
2021/05/13 00:23:18;;;;;;;19.65;2.78;;;10.80;99.90;;;;;;5064466;28;20025;-70
2021/05/13 00:25:46;;;;;;;4.45;2.38;;;10.70;99.90;;;;;;5063773;28;20071;-71
2021/05/13 00:28:12;;;;;;;11.18;3.22;;;10.70;99.90;;;;;;5064421;28;20025;-68
2021/05/13 00:30:37;;;;;;;14.57;2.90;;;10.70;99.90;;;;;;5064036;28;20044;-69
2021/05/13 00:33:03;;;;;;;13.68;3.83;;;10.70;99.90;;;;;;5064101;28;20530;-68
2021/05/13 00:35:28;;;;;;;6.72;3.65;;;10.70;99.90;;;;;;5064018;28;20029;-69
2021/05/13 00:37:55;;;;;;;13.02;5.07;;;10.80;99.90;;;;;;5064287;28;20465;-69
2021/05/13 00:40:21;;;;;;;10.38;3.65;;;10.80;99.90;;;;;;5063944;28;20021;-68
2021/05/13 00:42:47;;;;;;;8.57;3.83;;;10.80;99.90;;;;;;5064102;28;20067;-69
2021/05/13 00:45:14;;;;;;;9.13;3.85;;;10.90;99.90;;;;;;5064111;28;20036;-68
2021/05/13 00:50:22;;;;;;;19.15;4.10;;;10.90;99.90;;;;;;5063170;28;20057;-69
2021/05/13 00:52:48;;;;;;;15.40;3.80;;;10.90;99.90;;;;;;5063756;28;20083;-69
2021/05/13 00:55:16;;;;;;;7.63;3.88;;;10.90;99.90;;;;;;5063667;28;20025;-69
2021/05/13 00:57:45;;;;;;;8.40;3.92;;;10.90;99.90;;;;;;5063862;28;20048;-70
2021/05/13 01:00:34;;;;;;;11.10;3.80;;;10.90;99.90;;;;;;5062408;28;20040;-69
2021/05/13 01:03:00;;;;;;;8.43;3.45;;;10.90;99.90;;;;;;5063929;28;20029;-69
2021/05/13 01:05:27;;;;;;;12.15;4.03;;;10.80;99.90;;;;;;5063822;28;20025;-69
2021/05/13 01:07:53;;;;;;;6.65;3.85;;;10.90;99.90;;;;;;5063529;28;20101;-69
2021/05/13 01:10:19;;;;;;;5.43;3.00;;;10.80;99.90;;;;;;5063430;28;20037;-69
2021/05/13 01:12:46;;;;;;;9.65;4.13;;;10.80;99.90;;;;;;5064147;28;20511;-70
2021/05/13 01:15:35;;;;;;;12.60;4.30;;;10.80;99.90;;;;;;5065067;28;20025;-71
2021/05/13 01:20:28;;;;;;;14.32;4.40;;;10.70;99.90;;;;;;5067040;28;20029;-69
2021/05/13 01:22:55;;;;;;;6.35;3.72;;;10.70;99.90;;;;;;5067020;28;20017;-68
2021/05/13 01:25:21;;;;;;;11.77;2.80;;;10.70;99.90;;;;;;5067362;28;20484;-68
2021/05/13 01:27:47;;;;;;;11.85;3.88;;;10.70;99.90;;;;;;5067308;28;20042;-70
2021/05/13 01:30:16;;;;;;;9.43;4.43;;;10.70;99.90;;;;;;5066405;28;20041;-71
2021/05/13 01:32:42;;;;;;;5.82;3.40;;;10.70;99.90;;;;;;5067422;28;20029;-70
2021/05/13 01:35:08;;;;;;;8.25;3.65;;;10.70;99.90;;;;;;5067424;28;20029;-69
2021/05/13 01:37:34;;;;;;;12.93;4.25;;;10.60;99.90;;;;;;5066726;28;20029;-69
2021/05/13 01:39:59;;;;;;;19.88;3.88;;;10.60;99.90;;;;;;5066986;28;20080;-69
2021/05/13 01:42:25;;;;;;;15.80;4.32;;;10.60;99.90;;;;;;5066686;28;20028;-68
2021/05/13 01:44:50;;;;;;;8.10;3.53;;;10.60;99.90;;;;;;5066330;28;20029;-70
2021/05/13 01:47:16;;;;;;;15.75;4.43;;;10.50;99.90;;;;;;5066960;28;20056;-69
2021/05/13 01:49:41;;;;;;;9.25;3.22;;;10.50;99.90;;;;;;5065657;28;20103;-69
2021/05/13 01:52:07;;;;;;;5.07;2.60;;;10.50;99.90;;;;;;5066484;28;20052;-69
2021/05/13 01:54:33;;;;;;;6.13;2.85;;;10.60;99.90;;;;;;5066630;28;20107;-68
2021/05/13 01:57:02;;;;;;;6.40;2.67;;;10.60;99.90;;;;;;5066319;28;20040;-68
2021/05/13 01:59:28;;;;;;;7.63;4.13;;;10.50;99.90;;;;;;5066503;28;20119;-69
2021/05/13 02:01:53;;;;;;;6.25;3.13;;;10.50;99.90;;;;;;5066297;28;20033;-70
2021/05/13 02:04:19;;;;;;;8.52;4.15;;;10.40;99.90;;;;;;5066283;28;20048;-69
2021/05/13 02:06:45;;;;;;;16.30;4.40;;;10.40;99.90;;;;;;5066563;28;20053;-70
2021/05/13 02:09:11;;;;;;;12.77;3.80;;;10.40;99.90;;;;;;5066469;28;20017;-69
2021/05/13 02:11:36;;;;;;;8.35;4.05;;;10.40;99.90;;;;;;5066086;28;20037;-69
2021/05/13 02:14:02;;;;;;;23.00;4.53;;;10.30;99.90;;;;;;5066147;28;20059;-69
2021/05/13 02:16:28;;;;;;;14.75;4.40;;;10.30;99.90;;;;;;5066030;28;20032;-69
2021/05/13 02:18:53;;;;;;;4.75;2.90;;;10.20;99.90;;;;;;5065753;28;20386;-70
2021/05/13 02:21:19;;;;;;;8.80;3.70;;;10.20;99.90;;;;;;5064592;28;20402;-68
2021/05/13 02:23:45;;;;;;;9.85;3.92;;;10.20;99.90;;;;;;5066445;28;20025;-69
2021/05/13 02:26:10;;;;;;;5.35;2.90;;;10.20;99.90;;;;;;5064695;28;20028;-71
2021/05/13 02:28:36;;;;;;;7.63;4.15;;;10.20;99.90;;;;;;5064692;28;20890;-69
2021/05/13 02:31:02;;;;;;;15.82;4.35;;;10.20;99.90;;;;;;5065992;28;20050;-69
2021/05/13 02:33:28;;;;;;;8.77;3.35;;;10.20;99.90;;;;;;5065392;28;20029;-70
2021/05/13 02:35:53;;;;;;;10.55;4.25;;;10.20;99.90;;;;;;5064407;28;20039;-70
2021/05/13 02:38:19;;;;;;;5.75;3.30;;;10.20;99.90;;;;;;5065803;28;20075;-69
2021/05/13 02:40:44;;;;;;;8.13;4.18;;;10.20;99.90;;;;;;5065465;28;20029;-68
2021/05/13 02:43:10;;;;;;;7.28;3.63;;;10.20;99.90;;;;;;5066257;28;20037;-68
2021/05/13 02:45:36;;;;;;;12.27;4.15;;;10.20;99.90;;;;;;5065647;28;20085;-69
2021/05/13 02:48:01;;;;;;;9.13;3.78;;;10.20;99.90;;;;;;5064017;28;20071;-70
2021/05/13 02:50:27;;;;;;;15.15;4.30;;;10.10;99.90;;;;;;5064773;28;20051;-69
2021/05/13 02:52:53;;;;;;;14.50;4.93;;;10.10;99.90;;;;;;5065306;28;20357;-68
2021/05/13 02:55:19;;;;;;;10.80;4.68;;;10.10;99.90;;;;;;5065128;28;20025;-70
2021/05/13 02:57:46;;;;;;;7.88;4.15;;;10.10;99.90;;;;;;5065491;28;20037;-70
2021/05/13 03:00:20;;;;;;;23.00;5.22;;;10.20;99.90;;;;;;5065624;28;20028;-69
2021/05/13 03:02:46;;;;;;;8.30;4.25;;;10.10;99.90;;;;;;5064082;28;20029;-68
2021/05/13 03:05:14;;;;;;;10.88;4.60;;;10.10;99.90;;;;;;5065180;28;20029;-68
2021/05/13 03:07:48;;;;;;;7.30;3.42;;;10.10;99.90;;;;;;5065104;28;20025;-69
2021/05/13 03:10:20;;;;;;;11.23;4.50;;;10.10;99.90;;;;;;5065120;28;20037;-70
2021/05/13 03:12:47;;;;;;;14.40;5.25;;;10.10;99.90;;;;;;5065448;28;20027;-68
2021/05/13 03:15:13;;;;;;;16.40;5.60;;;10.00;99.90;;;;;;5064750;28;20044;-69
2021/05/13 03:17:38;;;;;;;10.13;5.05;;;10.10;99.90;;;;;;5065237;28;20025;-68
2021/05/13 03:20:05;;;;;;;11.70;5.10;;;10.10;99.90;;;;;;5064821;28;20040;-69
2021/05/13 03:22:31;;;;;;;16.17;6.28;;;10.10;99.90;;;;;;5064600;28;20103;-69
2021/05/13 03:25:03;;;;;;;12.75;4.80;;;10.00;99.90;;;;;;5064725;28;20612;-70
2021/05/13 03:30:24;;;;;;;;;;;10.00;99.90;;;;;;5067674;28;20067;-68
2021/05/13 03:32:51;;;;;;;12.00;5.38;;;10.00;99.90;;;;;;5063506;28;20348;-68
2021/05/13 03:35:17;;;;;;;21.85;7.25;;;10.00;99.90;;;;;;5063406;28;20435;-70
2021/05/13 03:37:43;;;;;;;16.58;6.78;;;9.90;99.90;;;;;;5064338;28;20017;-69
2021/05/13 03:40:09;;;;;;;26.80;6.47;;;10.00;99.90;;;;;;5064925;28;20071;-68
2021/05/13 03:42:35;;;;;;;20.00;6.57;;;10.00;99.90;;;;;;5064504;28;20029;-69
2021/05/13 03:45:00;;;;;;;13.25;6.93;;;10.00;99.90;;;;;;5063512;28;20044;-69
2021/05/13 03:47:26;;;;;;;18.05;6.60;;;9.90;99.90;;;;;;5064756;28;20051;-69
2021/05/13 03:49:52;;;;;;;11.85;5.22;;;10.00;99.90;;;;;;5063413;28;20799;-68
2021/05/13 03:52:17;;;;;;;13.73;6.47;;;9.90;99.90;;;;;;5064706;28;20040;-68
2021/05/13 03:54:43;;;;;;;13.43;6.35;;;9.90;99.90;;;;;;5064457;28;20064;-70
2021/05/13 03:57:09;;;;;;;16.85;6.47;;;9.90;99.90;;;;;;5064828;28;20043;-69
2021/05/13 03:59:41;;;;;;;13.85;5.82;;;9.90;99.90;;;;;;5063291;28;20097;-68
2021/05/13 04:02:28;;;;;;;21.20;6.82;;;9.90;99.90;;;;;;5064572;28;20033;-69
2021/05/13 04:04:53;;;;;;;16.55;7.43;;;9.90;99.90;;;;;;5063847;28;20036;-69
2021/05/13 04:07:19;;;;;;;16.33;6.82;;;9.90;99.90;;;;;;5064558;28;20028;-71
2021/05/13 04:09:46;;;;;;;20.58;6.18;;;10.00;99.90;;;;;;5064408;28;20057;-69
2021/05/13 04:12:11;;;;;;;14.20;5.88;;;10.00;99.90;;;;;;5064316;28;20048;-68
2021/05/13 04:14:37;;;;;;;15.65;7.63;;;10.00;99.90;;;;;;5064472;28;20040;-68
2021/05/13 04:17:06;;;;;;;16.60;7.43;;;10.00;99.90;;;;;;5064310;28;20028;-68
2021/05/13 04:19:32;;;;;;;12.93;6.15;;;10.10;99.90;;;;;;5063743;28;20024;-68
2021/05/13 04:21:57;;;;;;;23.40;7.47;;;10.10;99.90;;;;;;5064214;28;20044;-69
2021/05/13 04:24:23;;;;;;;22.23;8.00;;;10.10;99.90;;;;;;5062912;28;20025;-69
2021/05/13 04:26:48;;;;;;;23.13;7.93;;;10.10;99.90;;;;;;5062844;28;20033;-69
2021/05/13 04:29:14;;;;;;;24.05;7.28;;;10.10;99.90;;;;;;5064275;28;20033;-70
2021/05/13 04:31:40;;;;;;;24.15;6.65;;;10.10;99.90;;;;;;5062812;28;20041;-68
2021/05/13 04:34:06;;;;;;;18.23;7.68;;;10.10;99.90;;;;;;5063799;28;20024;-68
2021/05/13 04:36:31;;;;;;;19.38;8.02;;;10.10;99.90;;;;;;5068872;28;20021;-69
2021/05/13 04:38:57;;;;;;;15.38;7.18;;;10.10;99.90;;;;;;5068834;28;20070;-70
2021/05/13 04:41:25;;;;;;;23.92;8.18;;;10.10;99.90;;;;;;5069811;28;20039;-69
2021/05/13 04:43:50;;;;;;;27.30;8.15;;;10.10;99.90;;;;;;5075175;28;20032;-70
2021/05/13 04:46:17;;;;;;;15.30;8.23;;;10.20;99.90;;;;;;5063767;28;20141;-71
2021/05/13 04:51:19;;;;;;;23.17;8.57;;;10.20;99.90;;;;;;5073959;28;20414;-68
2021/05/13 04:53:47;;;;;;;19.88;8.00;;;10.30;99.90;;;;;;5079965;28;20461;-69
2021/05/13 04:56:13;;;;;;;29.15;7.85;;;10.30;99.90;;;;;;5069511;28;20025;-68
2021/05/13 04:58:39;;;;;;;18.95;7.70;;;10.30;99.90;;;;;;5067361;28;20032;-68
2021/05/13 05:01:04;;;;;;;14.55;7.22;;;10.30;99.90;;;;;;5066145;28;20040;-69
2021/05/13 05:03:30;;;;;;;14.15;7.30;;;10.30;99.90;;;;;;5067769;28;20063;-69
2021/05/13 05:05:56;;;;;;;19.58;8.70;;;10.30;99.90;;;;;;5067674;28;20100;-67
2021/05/13 05:08:21;;;;;;;16.42;7.68;;;10.30;99.90;;;;;;5067447;28;20025;-69
2021/05/13 05:10:47;;;;;;;19.58;8.77;;;10.30;99.90;;;;;;5067684;28;20124;-69
2021/05/13 05:13:13;;;;;;;21.85;8.55;;;10.40;99.90;;;;;;5067643;28;20033;-68
2021/05/13 05:15:38;;;;;;;18.75;8.25;;;10.40;99.90;;;;;;5067225;28;20025;-69
2021/05/13 05:18:04;;;;;;;19.33;8.88;;;10.40;99.90;;;;;;5067628;28;20076;-69
2021/05/13 05:20:30;;;;;;;20.42;7.07;;;10.40;99.90;;;;;;5066580;28;20037;-70
2021/05/13 05:22:55;;;;;;;13.30;7.40;;;10.40;99.90;;;;;;5073993;28;20009;-68
2021/05/13 05:25:21;;;;;;;19.58;8.27;;;10.30;99.90;;;;;;5073607;28;20032;-68
2021/05/13 05:27:47;;;;;;;14.55;8.13;;;10.30;99.90;;;;;;5078422;28;20108;-68
2021/05/13 05:30:13;;;;;;;12.98;7.28;;;10.40;99.90;;;;;;5066159;28;20048;-70
2021/05/13 05:32:39;;;;;;;16.38;7.30;;;10.40;99.90;;;;;;5067269;28;20083;-69
2021/05/13 05:35:05;;;;;;;22.38;8.30;;;10.50;99.90;;;;;;5066741;28;20472;-69
2021/05/13 05:37:33;;;;;;;14.90;8.02;;;10.50;99.90;;;;;;5067154;28;20028;-70
2021/05/13 05:40:02;;;;;;;19.95;8.05;;;10.50;99.90;;;;;;5067016;28;20094;-69
2021/05/13 05:42:28;;;;;;;17.73;9.57;;;10.50;99.90;;;;;;5066781;28;20025;-70
2021/05/13 05:44:54;;;;;;;16.52;7.90;;;10.60;99.90;;;;;;5066763;28;20025;-71
2021/05/13 05:47:20;;;;;;;13.05;6.95;;;10.60;99.90;;;;;;5065275;28;20068;-69
2021/05/13 05:49:45;;;;;;;19.58;8.45;;;10.60;99.90;;;;;;5066148;28;20079;-69
2021/05/13 05:52:12;;;;;;;15.70;7.97;;;10.60;99.90;;;;;;5067525;28;20028;-69
2021/05/13 05:54:38;;;;;;;14.50;7.88;;;10.70;99.90;;;;;;5068282;28;20104;-70
2021/05/13 05:57:04;;;;;;;22.77;10.00;;;10.80;99.90;;;;;;5067403;28;20021;-71
2021/05/13 05:59:29;;;;;;;20.88;9.05;;;10.80;99.90;;;;;;5067264;28;20021;-70
2021/05/13 06:01:55;;;;;;;17.55;7.95;;;10.80;99.90;;;;;;5066260;28;20029;-70
2021/05/13 06:04:20;;;;;;;18.95;8.52;;;10.80;99.90;;;;;;5065902;28;20059;-69
2021/05/13 06:06:46;;;;;;;18.42;8.40;;;10.90;99.90;;;;;;5065563;28;20033;-71
2021/05/13 06:09:12;;;;;;;24.50;8.13;;;10.90;99.90;;;;;;5066085;28;20033;-71
2021/05/13 06:11:37;;;;;;;14.95;8.38;;;11.00;99.90;;;;;;5066083;28;20037;-69
2021/05/13 06:14:03;;;;;;;16.30;7.75;;;11.10;99.90;;;;;;5066195;28;20076;-68
2021/05/13 06:16:30;;;;;;;18.05;8.52;;;11.20;99.90;;;;;;5066023;28;20393;-68
2021/05/13 06:18:57;;;;;;;14.50;7.05;;;11.30;99.90;;;;;;5065987;28;20025;-70
2021/05/13 06:21:24;;;;;;;16.08;7.80;;;11.50;99.90;;;;;;5072343;28;20072;-69
2021/05/13 06:24:00;;;;;;;20.00;9.07;;;11.70;99.90;;;;;;5076571;28;20025;-69
2021/05/13 06:26:32;;;;;;;11.70;6.63;;;11.80;99.90;;;;;;5085222;28;20051;-69
2021/05/13 06:28:58;;;;;;;15.43;6.82;;;11.80;99.90;;;;;;5085728;28;20029;-70
2021/05/13 06:31:23;;;;;;;22.77;6.97;;;11.80;99.90;;;;;;5085014;28;20036;-69
2021/05/13 06:33:49;;;;;;;13.98;6.95;;;11.90;99.90;;;;;;5086116;28;20025;-70
2021/05/13 06:36:16;;;;;;;18.45;6.97;;;12.00;99.90;;;;;;5084778;28;20028;-74
2021/05/13 06:38:44;;;;;;;19.92;6.90;;;12.10;99.90;;;;;;5085449;28;20027;-72
2021/05/13 06:41:10;;;;;;;14.00;7.72;;;12.20;99.90;;;;;;5084578;28;20025;-71
2021/05/13 06:43:37;;;;;;;15.43;6.95;;;12.20;99.90;;;;;;5085492;28;20050;-72
2021/05/13 06:46:03;;;;;;;13.40;6.43;;;12.20;99.90;;;;;;5085680;28;20035;-72
2021/05/13 06:48:29;;;;;;;16.48;6.68;;;12.20;99.90;;;;;;5085670;28;20017;-69
2021/05/13 06:50:54;;;;;;;20.70;7.57;;;12.30;99.90;;;;;;5081838;28;20082;-71
2021/05/13 06:53:20;;;;;;;15.43;6.28;;;12.30;99.90;;;;;;5085409;28;20032;-69
2021/05/13 06:55:51;;;;;;;13.90;7.15;;;12.40;99.90;;;;;;5085542;28;20032;-70
2021/05/13 06:58:17;;;;;;;16.48;5.43;;;12.30;99.90;;;;;;5085421;28;20021;-68
2021/05/13 07:00:43;;;;;;;13.30;5.72;;;12.30;99.90;;;;;;5085629;28;20020;-71
2021/05/13 07:03:08;;;;;;;13.02;4.78;;;12.20;99.90;;;;;;5085686;28;20039;-70
2021/05/13 07:05:34;;;;;;;12.13;5.25;;;12.20;99.90;;;;;;5085045;28;20043;-69
2021/05/13 07:07:59;;;;;;;10.57;4.28;;;12.20;99.90;;;;;;5085374;28;20855;-69
2021/05/13 07:10:25;;;;;;;8.98;4.88;;;12.10;99.90;;;;;;5085336;28;20032;-69
2021/05/13 07:12:51;;;;;;;18.52;5.45;;;12.10;99.90;;;;;;5084034;28;20060;-71
2021/05/13 07:15:16;;;;;;;7.78;5.20;;;12.00;99.90;;;;;;5084807;28;20483;-71
2021/05/13 07:17:42;;;;;;;6.90;3.53;;;12.00;99.90;;;;;;5085128;28;20055;-72
2021/05/13 07:20:08;;;;;;;9.52;4.70;;;12.00;99.90;;;;;;5084774;28;20033;-69
2021/05/13 07:22:34;;;;;;;6.15;3.85;;;12.00;99.90;;;;;;5083542;28;20025;-69
2021/05/13 07:24:59;;;;;;;11.55;3.95;;;12.10;99.90;;;;;;5084339;28;20032;-69
2021/05/13 07:27:25;;;;;;;12.48;4.30;;;12.20;99.90;;;;;;5079238;28;20025;-69
2021/05/13 07:29:50;;;;;;;15.82;4.97;;;12.30;99.90;;;;;;5076154;28;20051;-71
2021/05/13 07:32:16;;;;;;;14.52;4.13;;;12.50;99.90;;;;;;5064444;28;20033;-71
2021/05/13 07:34:41;;;;;;;14.40;3.85;;;12.50;99.90;;;;;;5063406;28;20024;-68
2021/05/13 07:37:07;;;;;;;10.32;5.10;;;12.60;99.90;;;;;;5062932;28;20056;-71
2021/05/13 07:39:35;;;;;;;6.97;3.83;;;12.60;99.90;;;;;;5062444;28;20029;-70
2021/05/13 07:42:01;;;;;;;10.73;3.40;;;12.60;99.90;;;;;;5063302;28;20021;-70
2021/05/13 07:44:27;;;;;;;6.05;3.33;;;12.60;99.90;;;;;;5063882;28;20021;-69
2021/05/13 07:46:55;;;;;;;7.35;3.83;;;12.60;99.90;;;;;;5063999;28;20029;-70
2021/05/13 07:49:21;;;;;;;10.48;3.53;;;12.60;99.90;;;;;;5063689;28;20025;-70
2021/05/13 07:51:48;;;;;;;10.95;4.57;;;12.60;99.90;;;;;;5062637;28;20063;-69
2021/05/13 07:54:14;;;;;;;5.30;2.78;;;12.70;99.90;;;;;;5064142;28;20086;-67
2021/05/13 07:56:40;;;;;;;11.40;3.58;;;12.70;99.90;;;;;;5064591;28;20028;-67
2021/05/13 07:59:06;;;;;;;11.25;4.28;;;12.70;99.90;;;;;;5064433;28;20033;-67
2021/05/13 08:01:31;;;;;;;5.72;3.08;;;12.80;99.90;;;;;;5064386;28;22256;-67
2021/05/13 08:03:57;;;;;;;14.45;4.13;;;12.90;99.90;;;;;;5074548;28;20059;-68
2021/05/13 08:06:22;;;;;;;13.50;3.58;;;12.90;99.90;;;;;;5070601;28;20025;-69
2021/05/13 08:08:48;;;;;;;5.40;3.53;;;12.90;99.90;;;;;;5063973;28;20037;-69
2021/05/13 08:11:14;;;;;;;8.05;3.65;;;13.00;99.90;;;;;;5064165;28;20064;-69
2021/05/13 08:13:40;;;;;;;11.15;4.45;;;13.10;99.90;;;;;;5064419;28;20033;-69
2021/05/13 08:16:06;;;;;;;7.15;3.20;;;13.30;99.90;;;;;;5064154;28;20025;-68
2021/05/13 08:18:32;;;;;;;9.75;3.55;;;13.50;99.90;;;;;;5064437;28;20059;-69
2021/05/13 08:20:57;;;;;;;6.82;3.83;;;13.60;99.90;;;;;;5064388;28;20033;-70
2021/05/13 08:23:23;;;;;;;10.93;3.92;;;13.70;99.90;;;;;;5071224;28;20075;-70
2021/05/13 08:25:49;;;;;;;3.28;2.60;;;13.80;99.90;;;;;;5076309;28;20029;-68
2021/05/13 08:28:14;;;;;;;10.27;3.45;;;13.70;99.90;;;;;;5082569;28;20017;-69
2021/05/13 08:30:41;;;;;;;7.65;3.33;;;13.80;99.90;;;;;;5078825;28;20132;-68
2021/05/13 08:33:07;;;;;;;4.50;2.63;;;13.80;99.90;;;;;;5070169;28;20469;-68
2021/05/13 08:35:33;;;;;;;3.70;2.83;;;13.90;99.90;;;;;;5079872;28;20485;-67
2021/05/13 08:37:58;;;;;;;5.28;2.75;;;14.10;99.90;;;;;;5066581;28;20029;-68
2021/05/13 08:40:24;;;;;;;6.22;3.53;;;14.30;99.90;;;;;;5067602;28;20508;-69
2021/05/13 08:42:50;;;;;;;9.02;2.85;;;14.40;99.90;;;;;;5067450;28;20210;-68
2021/05/13 08:45:16;;;;;;;4.43;2.22;;;14.50;99.90;;;;;;5067924;28;20025;-71
2021/05/13 08:47:46;;;;;;;3.97;2.47;;;14.80;99.90;;;;;;5067961;28;20036;-68
2021/05/13 08:50:15;;;;;;;4.93;2.05;;;14.80;99.90;;;;;;5067271;28;20429;-68
2021/05/13 08:52:40;;;;;;;5.25;2.33;;;15.10;99.90;;;;;;5067912;28;20366;-69
2021/05/13 08:55:07;;;;;;;8.82;2.75;;;15.30;99.90;;;;;;5067922;28;20040;-69
2021/05/13 08:57:33;;;;;;;4.57;2.22;;;15.30;99.90;;;;;;5067767;28;20093;-68
2021/05/13 08:59:59;;;;;;;3.90;2.08;;;15.40;99.90;;;;;;5067963;28;20025;-68
2021/05/13 09:02:27;;;;;;;3.38;1.92;;;15.50;99.90;;;;;;5067994;28;20032;-68
2021/05/13 09:04:56;;;;;;;2.47;1.67;;;15.70;99.90;;;;;;5067522;28;20021;-68
2021/05/13 09:07:29;;;;;;;2.83;1.88;;;15.80;99.90;;;;;;5067471;28;20021;-68
2021/05/13 09:10:06;;;;;;;7.68;2.22;;;15.90;99.90;;;;;;5067224;28;20542;-70
2021/05/13 09:12:34;;;;;;;2.28;1.73;;;15.90;99.90;;;;;;5067275;28;20036;-68
2021/05/13 09:15:18;;;;;;;5.60;2.13;;;15.70;99.90;;;;;;5067564;28;20081;-71
2021/05/13 09:17:48;;;;;;;2.20;1.55;;;15.60;99.90;;;;;;5072518;28;20021;-70
2021/05/13 09:20:28;;;;;;;3.97;2.03;;;15.50;99.90;;;;;;5086713;28;20047;-71
2021/05/13 09:23:13;;;;;;;4.53;1.73;;;15.40;99.90;;;;;;5067299;28;20033;-70
2021/05/13 09:25:44;;;;;;;4.85;1.60;;;15.30;99.90;;;;;;5066981;28;20037;-70
2021/05/13 09:28:10;;;;;;;2.65;1.73;;;15.30;99.90;;;;;;5069679;28;20063;-68
2021/05/13 09:30:36;;;;;;;4.82;1.92;;;15.40;99.90;;;;;;5075514;28;20036;-69
2021/05/13 09:33:05;;;;;;;3.38;1.77;;;15.70;99.90;;;;;;5067087;28;20349;-71
2021/05/13 09:35:36;;;;;;;4.63;1.92;;;15.80;99.90;;;;;;5064706;28;20092;-68
2021/05/13 09:38:07;;;;;;;2.08;1.50;;;15.90;99.90;;;;;;5071479;28;20052;-70
2021/05/13 09:40:41;;;;;;;4.38;1.88;;;16.00;99.90;;;;;;5084987;28;20429;-70
2021/05/13 09:43:19;;;;;;;3.55;2.08;;;16.00;99.90;;;;;;5086325;28;20028;-70
2021/05/13 09:45:48;;;;;;;3.38;1.88;;;16.20;99.90;;;;;;5086309;28;20037;-71
2021/05/13 09:48:42;;;;;;;5.10;2.00;;;16.40;99.90;;;;;;5085891;28;20032;-71
2021/05/13 09:51:28;;;;;;;3.58;1.88;;;16.30;99.90;;;;;;5085532;28;20076;-69
2021/05/13 09:54:09;;;;;;;7.07;1.77;;;16.30;99.90;;;;;;5085693;28;20032;-69
2021/05/13 09:56:38;;;;;;;2.95;1.58;;;16.50;99.90;;;;;;5085414;28;20481;-68
2021/05/13 09:59:37;;;;;;;3.55;2.35;;;16.70;99.90;;;;;;5085712;28;20032;-68
2021/05/13 10:02:06;;;;;;;4.57;1.85;;;16.80;99.90;;;;;;5085478;28;20028;-69
2021/05/13 10:04:32;;;;;;;3.47;1.70;;;16.80;99.90;;;;;;5084311;28;20048;-69
2021/05/13 10:06:59;;;;;;;6.55;2.55;;;16.70;99.90;;;;;;5085461;28;20028;-68
2021/05/13 10:09:24;;;;;;;3.13;1.83;;;16.70;99.90;;;;;;5085547;28;20024;-67
2021/05/13 10:11:58;;;;;;;3.72;1.70;;;16.80;99.90;;;;;;5085491;28;20040;-73
2021/05/13 10:14:26;;;;;;;;;;;16.90;99.90;;;;;;5085667;28;20033;-69
2021/05/13 10:16:57;;;;;;;3.15;1.33;;;17.00;99.90;;;;;;5084669;28;19911;-71
2021/05/13 10:19:29;;;;;;;7.32;1.95;;;17.10;99.90;;;;;;5085736;28;20024;-70
2021/05/13 10:21:56;;;;;;;2.50;1.40;;;17.10;99.90;;;;;;5085931;28;20020;-68
2021/05/13 10:24:22;;;;;;;4.65;2.03;;;17.10;99.90;;;;;;5084912;28;20025;-68
2021/05/13 10:26:49;;;;;;;3.45;1.85;;;17.10;99.90;;;;;;5085713;28;20028;-68
2021/05/13 10:29:22;;;;;;;2.78;1.80;;;17.20;99.90;;;;;;5080220;28;20028;-70
2021/05/13 10:32:10;;;;;;;3.28;1.80;;;17.40;99.90;;;;;;5077192;28;20090;-70
2021/05/13 10:34:47;;;;;;;6.75;1.40;;;17.40;99.90;;;;;;5062937;28;20532;-72
2021/05/13 10:37:30;;;;;;;1.13;0.95;;;17.20;99.90;;;;;;5065215;28;20031;-69
2021/05/13 10:40:08;;;;;;;6.07;1.58;;;17.20;99.90;;;;;;5065511;28;20040;-70
2021/05/13 10:42:38;;;;;;;3.70;1.65;;;17.20;99.90;;;;;;5063827;28;20056;-70
2021/05/13 10:45:26;;;;;;;3.83;1.20;;;17.10;99.90;;;;;;5065126;28;20084;-71
2021/05/13 10:48:27;;;;;;;1.80;1.23;;;17.20;99.90;;;;;;5065354;28;20048;-69
2021/05/13 10:51:04;;;;;;;1.02;0.70;;;17.40;99.90;;;;;;5063507;28;20408;-69
2021/05/13 10:53:45;;;;;;;1.35;1.08;;;17.60;99.90;;;;;;5065719;28;20470;-70
2021/05/13 10:56:15;;;;;;;3.47;1.42;;;17.80;99.90;;;;;;5064363;28;20040;-70
2021/05/13 10:59:04;;;;;;;4.53;1.25;;;17.70;99.90;;;;;;5064390;28;20029;-71
2021/05/13 11:01:49;;;;;;;0.93;0.82;;;17.70;99.90;;;;;;5065232;28;20025;-70
2021/05/13 11:04:17;;;;;;;;;;;17.70;99.90;;;;;;5065841;28;20028;-70
2021/05/13 11:06:44;;;;;;;0.77;0.75;;;17.70;99.90;;;;;;5065084;28;19912;-73
2021/05/13 11:09:10;;;;;;;7.82;1.30;;;17.70;99.90;;;;;;5064214;28;20077;-69
2021/05/13 11:12:11;;;;;;;1.85;1.40;;;17.70;99.90;;;;;;5064452;28;20083;-70
2021/05/13 11:17:40;;;;;;;1.15;0.88;;;18.10;99.90;;;;;;5065261;28;20048;-71
2021/05/13 11:20:30;;;;;;;1.90;1.10;;;18.00;99.90;;;;;;5064822;28;20044;-69
2021/05/13 11:23:17;;;;;;;1.38;1.10;;;17.80;99.90;;;;;;5065223;28;20028;-69
2021/05/13 11:25:44;;;;;;;2.17;0.73;;;17.90;99.90;;;;;;5064463;28;20383;-73
2021/05/13 11:28:22;;;;;;;2.10;0.88;;;17.90;99.90;;;;;;5065494;28;20025;-69
2021/05/13 11:30:49;;;;;;;3.65;1.48;;;17.80;99.90;;;;;;5064498;28;20047;-71
2021/05/13 11:33:16;;;;;;;0.70;0.70;;;17.80;99.90;;;;;;5064597;28;20021;-70
2021/05/13 11:35:42;;;;;;;2.65;1.13;;;18.00;99.90;;;;;;5064746;28;20089;-72
2021/05/13 11:38:36;;;;;;;1.85;0.60;;;18.20;99.90;;;;;;5065105;28;20081;-70
2021/05/13 11:41:02;;;;;;;2.58;1.08;;;18.50;99.90;;;;;;5064210;28;20068;-71
2021/05/13 11:43:33;;;;;;;1.33;0.73;;;18.80;99.90;;;;;;5064947;28;20025;-70
2021/05/13 11:46:10;;;;;;;5.00;1.02;;;18.90;99.90;;;;;;5064648;28;20048;-69
2021/05/13 11:48:43;;;;;;;1.55;0.60;;;19.10;99.90;;;;;;5064518;28;20522;-69
2021/05/13 11:51:09;;;;;;;0.80;0.43;;;19.30;99.90;;;;;;5064503;28;20523;-70
2021/05/13 11:53:37;;;;;;;2.05;1.10;;;19.30;99.90;;;;;;5064396;28;20036;-71
2021/05/13 11:56:05;;;;;;;1.85;0.70;;;19.40;99.90;;;;;;5064534;28;20456;-71
2021/05/13 11:58:39;;;;;;;2.42;1.00;;;19.50;99.90;;;;;;5064321;28;20039;-70
2021/05/13 12:01:25;;;;;;;2.08;0.93;;;19.50;99.90;;;;;;5063712;28;20025;-69
2021/05/13 12:04:01;;;;;;;2.88;0.88;;;19.70;99.90;;;;;;5063814;28;20100;-72
2021/05/13 12:06:28;;;;;;;1.30;0.70;;;19.70;99.90;;;;;;5063121;28;20599;-69
2021/05/13 12:08:54;;;;;;;1.98;0.80;;;19.60;99.90;;;;;;5064019;28;20017;-75
2021/05/13 12:11:24;;;;;;;1.00;0.90;;;19.60;99.90;;;;;;5064171;28;20036;-73
2021/05/13 12:13:55;;;;;;;2.17;1.13;;;19.30;99.90;;;;;;5064397;28;20028;-71
2021/05/13 12:16:22;;;;;;;5.50;0.77;;;19.20;99.90;;;;;;5064310;28;20036;-69
2021/05/13 12:18:52;;;;;;;3.20;1.10;;;19.40;99.90;;;;;;5076865;28;20082;-70
2021/05/13 12:21:19;;;;;;;2.40;1.10;;;19.30;99.90;;;;;;5083965;28;20051;-70
2021/05/13 12:23:47;;;;;;;1.48;1.00;;;19.30;99.90;;;;;;5082938;28;20047;-72
2021/05/13 12:26:22;;;;;;;1.20;0.77;;;19.20;99.90;;;;;;5083078;28;20029;-69
2021/05/13 12:28:49;;;;;;;1.50;0.98;;;19.20;99.90;;;;;;5084199;28;20103;-71
2021/05/13 12:31:25;;;;;;;5.10;1.25;;;19.10;99.90;;;;;;5083111;28;20044;-70
2021/05/13 12:33:50;;;;;;;2.22;1.13;;;19.20;99.90;;;;;;5084342;28;20029;-73
2021/05/13 12:36:16;;;;;;;2.47;1.08;;;19.30;99.90;;;;;;5083452;28;20036;-71
2021/05/13 12:38:43;;;;;;;3.65;1.40;;;19.40;99.90;;;;;;5084855;28;20031;-71
2021/05/13 12:41:16;;;;;;;2.35;0.80;;;19.50;99.90;;;;;;5084357;28;20037;-71
2021/05/13 12:43:47;;;;;;;2.03;0.88;;;19.40;99.90;;;;;;5084314;28;20036;-70
2021/05/13 12:46:25;;;;;;;1.02;0.75;;;19.30;99.90;;;;;;5084730;28;20024;-72
2021/05/13 12:48:52;;;;;;;2.03;1.23;;;19.10;99.90;;;;;;5084056;28;20036;-69
2021/05/13 12:51:26;;;;;;;2.10;0.80;;;19.00;99.90;;;;;;5082536;28;20067;-69
2021/05/13 12:53:56;;;;;;;3.50;1.10;;;18.90;99.90;;;;;;5084334;28;20028;-71
2021/05/13 12:56:31;;;;;;;1.77;1.20;;;19.00;99.90;;;;;;5083880;28;20048;-72
2021/05/13 12:59:06;;;;;;;2.88;1.73;;;19.00;99.90;;;;;;5083847;28;20055;-73
2021/05/13 13:01:32;;;;;;;1.77;1.38;;;19.00;99.90;;;;;;5084303;28;20021;-68
2021/05/13 13:03:58;;;;;;;4.25;1.73;;;18.80;99.90;;;;;;5083367;28;20095;-69